sensor_id;sensor_type;location;lat;lon;timestamp;P1;durP1;ratioP1;P2;durP2;ratioP2
52798;SDS011;38667;42.872;74.622;2024-03-23T00:52:40;18.80;;;10.18;;
52798;SDS011;38667;42.872;74.622;2024-03-23T00:55:06;14.10;;;7.60;;
52798;SDS011;38667;42.872;74.622;2024-03-23T00:57:33;9.40;;;6.20;;
52798;SDS011;38667;42.872;74.622;2024-03-23T00:59:59;12.13;;;6.93;;
52798;SDS011;38667;42.872;74.622;2024-03-23T01:02:25;8.80;;;6.25;;
52798;SDS011;38667;42.872;74.622;2024-03-23T01:04:52;13.55;;;6.47;;
52798;SDS011;38667;42.872;74.622;2024-03-23T01:07:18;8.60;;;5.90;;
52798;SDS011;38667;42.872;74.622;2024-03-23T01:09:46;9.25;;;6.22;;
52798;SDS011;38667;42.872;74.622;2024-03-23T01:12:12;9.55;;;6.93;;
52798;SDS011;38667;42.872;74.622;2024-03-23T01:14:39;11.50;;;5.97;;
52798;SDS011;38667;42.872;74.622;2024-03-23T01:17:05;9.20;;;6.00;;
52798;SDS011;38667;42.872;74.622;2024-03-23T01:19:31;10.55;;;5.32;;
52798;SDS011;38667;42.872;74.622;2024-03-23T01:21:58;9.00;;;5.70;;
52798;SDS011;38667;42.872;74.622;2024-03-23T01:24:24;8.38;;;5.45;;
52798;SDS011;38667;42.872;74.622;2024-03-23T01:26:52;8.25;;;5.35;;
52798;SDS011;38667;42.872;74.622;2024-03-23T01:29:18;8.57;;;5.27;;
52798;SDS011;38667;42.872;74.622;2024-03-23T01:31:44;10.55;;;5.90;;
52798;SDS011;38667;42.872;74.622;2024-03-23T01:34:11;8.50;;;6.15;;
52798;SDS011;38667;42.872;74.622;2024-03-23T01:36:37;7.22;;;5.20;;
52798;SDS011;38667;42.872;74.622;2024-03-23T01:39:03;7.03;;;4.70;;
52798;SDS011;38667;42.872;74.622;2024-03-23T01:41:30;6.80;;;4.47;;
52798;SDS011;38667;42.872;74.622;2024-03-23T01:43:57;9.68;;;4.15;;
52798;SDS011;38667;42.872;74.622;2024-03-23T01:46:28;17.33;;;9.18;;
52798;SDS011;38667;42.872;74.622;2024-03-23T01:48:54;13.88;;;8.95;;
52798;SDS011;38667;42.872;74.622;2024-03-23T01:51:21;20.75;;;10.20;;
52798;SDS011;38667;42.872;74.622;2024-03-23T01:53:48;12.32;;;8.40;;
52798;SDS011;38667;42.872;74.622;2024-03-23T01:56:14;25.33;;;16.55;;
52798;SDS011;38667;42.872;74.622;2024-03-23T01:58:41;17.90;;;10.10;;
52798;SDS011;38667;42.872;74.622;2024-03-23T02:01:09;14.57;;;8.98;;
52798;SDS011;38667;42.872;74.622;2024-03-23T02:03:35;16.35;;;9.77;;
52798;SDS011;38667;42.872;74.622;2024-03-23T02:06:01;21.85;;;12.35;;
52798;SDS011;38667;42.872;74.622;2024-03-23T02:08:28;24.95;;;12.00;;
52798;SDS011;38667;42.872;74.622;2024-03-23T02:10:56;23.63;;;12.38;;
52798;SDS011;38667;42.872;74.622;2024-03-23T02:13:22;18.75;;;10.48;;
52798;SDS011;38667;42.872;74.622;2024-03-23T02:15:48;20.58;;;10.43;;
52798;SDS011;38667;42.872;74.622;2024-03-23T02:18:16;18.13;;;10.07;;
52798;SDS011;38667;42.872;74.622;2024-03-23T02:20:43;18.75;;;11.07;;
52798;SDS011;38667;42.872;74.622;2024-03-23T02:23:14;21.80;;;12.98;;
52798;SDS011;38667;42.872;74.622;2024-03-23T02:25:40;19.55;;;10.70;;
52798;SDS011;38667;42.872;74.622;2024-03-23T02:28:07;16.20;;;10.05;;
52798;SDS011;38667;42.872;74.622;2024-03-23T02:30:33;16.40;;;9.82;;
52798;SDS011;38667;42.872;74.622;2024-03-23T02:33:00;21.42;;;10.70;;
52798;SDS011;38667;42.872;74.622;2024-03-23T02:35:26;27.33;;;14.65;;
52798;SDS011;38667;42.872;74.622;2024-03-23T02:37:53;23.58;;;12.80;;
52798;SDS011;38667;42.872;74.622;2024-03-23T02:40:20;16.35;;;9.10;;
52798;SDS011;38667;42.872;74.622;2024-03-23T02:42:47;14.45;;;9.30;;
52798;SDS011;38667;42.872;74.622;2024-03-23T02:45:14;12.68;;;7.18;;
52798;SDS011;38667;42.872;74.622;2024-03-23T02:47:40;11.10;;;7.30;;
52798;SDS011;38667;42.872;74.622;2024-03-23T02:50:07;10.95;;;6.72;;
52798;SDS011;38667;42.872;74.622;2024-03-23T02:52:34;10.93;;;6.90;;
52798;SDS011;38667;42.872;74.622;2024-03-23T02:55:00;9.68;;;6.05;;
52798;SDS011;38667;42.872;74.622;2024-03-23T02:57:28;8.40;;;6.03;;
52798;SDS011;38667;42.872;74.622;2024-03-23T02:59:55;9.95;;;5.50;;
52798;SDS011;38667;42.872;74.622;2024-03-23T03:02:21;10.68;;;6.28;;
52798;SDS011;38667;42.872;74.622;2024-03-23T03:04:47;7.50;;;5.38;;
52798;SDS011;38667;42.872;74.622;2024-03-23T03:07:14;11.45;;;6.18;;
52798;SDS011;38667;42.872;74.622;2024-03-23T03:09:40;7.88;;;5.35;;
52798;SDS011;38667;42.872;74.622;2024-03-23T03:12:07;7.68;;;5.13;;
52798;SDS011;38667;42.872;74.622;2024-03-23T03:14:35;9.15;;;5.50;;
52798;SDS011;38667;42.872;74.622;2024-03-23T03:17:01;7.57;;;4.13;;
52798;SDS011;38667;42.872;74.622;2024-03-23T03:19:27;9.82;;;4.90;;
52798;SDS011;38667;42.872;74.622;2024-03-23T03:21:54;6.78;;;4.32;;
52798;SDS011;38667;42.872;74.622;2024-03-23T03:24:20;9.85;;;5.35;;
52798;SDS011;38667;42.872;74.622;2024-03-23T03:26:47;12.40;;;4.68;;
52798;SDS011;38667;42.872;74.622;2024-03-23T03:29:13;8.13;;;4.47;;
52798;SDS011;38667;42.872;74.622;2024-03-23T03:31:41;10.45;;;4.78;;
52798;SDS011;38667;42.872;74.622;2024-03-23T03:34:08;10.70;;;5.32;;
52798;SDS011;38667;42.872;74.622;2024-03-23T03:36:34;6.88;;;4.38;;
52798;SDS011;38667;42.872;74.622;2024-03-23T03:39:00;5.88;;;3.13;;
52798;SDS011;38667;42.872;74.622;2024-03-23T03:41:27;5.32;;;3.78;;
52798;SDS011;38667;42.872;74.622;2024-03-23T03:43:53;6.93;;;3.58;;
52798;SDS011;38667;42.872;74.622;2024-03-23T03:46:19;5.65;;;3.38;;
52798;SDS011;38667;42.872;74.622;2024-03-23T03:48:47;6.43;;;2.80;;
52798;SDS011;38667;42.872;74.622;2024-03-23T03:51:14;5.20;;;2.55;;
52798;SDS011;38667;42.872;74.622;2024-03-23T03:53:40;3.75;;;2.35;;
52798;SDS011;38667;42.872;74.622;2024-03-23T03:56:06;6.00;;;1.88;;
52798;SDS011;38667;42.872;74.622;2024-03-23T03:58:33;2.72;;;1.60;;
52798;SDS011;38667;42.872;74.622;2024-03-23T04:00:59;4.90;;;1.65;;
52798;SDS011;38667;42.872;74.622;2024-03-23T04:03:25;3.95;;;2.35;;
52798;SDS011;38667;42.872;74.622;2024-03-23T04:05:53;4.28;;;1.95;;
52798;SDS011;38667;42.872;74.622;2024-03-23T04:08:20;4.60;;;2.45;;
52798;SDS011;38667;42.872;74.622;2024-03-23T04:10:46;3.30;;;1.45;;
52798;SDS011;38667;42.872;74.622;2024-03-23T04:13:13;3.03;;;1.27;;
52798;SDS011;38667;42.872;74.622;2024-03-23T04:15:39;4.25;;;1.42;;
52798;SDS011;38667;42.872;74.622;2024-03-23T04:18:06;5.85;;;1.23;;
52798;SDS011;38667;42.872;74.622;2024-03-23T04:20:32;3.25;;;1.77;;
52798;SDS011;38667;42.872;74.622;2024-03-23T04:23:00;6.85;;;2.20;;
52798;SDS011;38667;42.872;74.622;2024-03-23T04:25:27;2.55;;;1.48;;
52798;SDS011;38667;42.872;74.622;2024-03-23T04:27:53;7.50;;;1.55;;
52798;SDS011;38667;42.872;74.622;2024-03-23T04:30:19;3.08;;;1.00;;
52798;SDS011;38667;42.872;74.622;2024-03-23T04:32:46;3.63;;;2.20;;
52798;SDS011;38667;42.872;74.622;2024-03-23T04:35:12;4.22;;;1.50;;
52798;SDS011;38667;42.872;74.622;2024-03-23T04:37:38;4.85;;;1.63;;
52798;SDS011;38667;42.872;74.622;2024-03-23T04:40:07;44.80;;;7.22;;
52798;SDS011;38667;42.872;74.622;2024-03-23T04:42:33;13.95;;;2.47;;
52798;SDS011;38667;42.872;74.622;2024-03-23T04:45:00;7.15;;;2.45;;
52798;SDS011;38667;42.872;74.622;2024-03-23T04:47:26;15.85;;;2.20;;
52798;SDS011;38667;42.872;74.622;2024-03-23T04:49:52;8.68;;;1.77;;
52798;SDS011;38667;42.872;74.622;2024-03-23T04:52:19;22.50;;;3.42;;
52798;SDS011;38667;42.872;74.622;2024-03-23T04:54:45;15.45;;;3.38;;
52798;SDS011;38667;42.872;74.622;2024-03-23T04:57:13;45.20;;;8.82;;
52798;SDS011;38667;42.872;74.622;2024-03-23T04:59:39;47.00;;;8.63;;
52798;SDS011;38667;42.872;74.622;2024-03-23T05:02:06;50.50;;;8.73;;
52798;SDS011;38667;42.872;74.622;2024-03-23T05:04:32;98.10;;;15.30;;
52798;SDS011;38667;42.872;74.622;2024-03-23T05:06:58;72.25;;;12.30;;
52798;SDS011;38667;42.872;74.622;2024-03-23T05:09:25;35.08;;;6.13;;
52798;SDS011;38667;42.872;74.622;2024-03-23T05:11:51;26.70;;;4.78;;
52798;SDS011;38667;42.872;74.622;2024-03-23T05:14:19;66.47;;;10.10;;
52798;SDS011;38667;42.872;74.622;2024-03-23T05:16:45;31.95;;;6.93;;
52798;SDS011;38667;42.872;74.622;2024-03-23T05:19:12;50.58;;;9.45;;
52798;SDS011;38667;42.872;74.622;2024-03-23T05:21:38;16.92;;;3.85;;
52798;SDS011;38667;42.872;74.622;2024-03-23T05:24:05;25.00;;;5.53;;
52798;SDS011;38667;42.872;74.622;2024-03-23T05:26:31;18.60;;;4.63;;
52798;SDS011;38667;42.872;74.622;2024-03-23T05:28:58;33.15;;;6.25;;
52798;SDS011;38667;42.872;74.622;2024-03-23T05:31:26;71.40;;;13.15;;
52798;SDS011;38667;42.872;74.622;2024-03-23T05:33:53;19.20;;;5.20;;
52798;SDS011;38667;42.872;74.622;2024-03-23T05:36:19;19.92;;;4.30;;
52798;SDS011;38667;42.872;74.622;2024-03-23T05:38:46;16.50;;;3.20;;
52798;SDS011;38667;42.872;74.622;2024-03-23T05:41:12;6.30;;;2.08;;
52798;SDS011;38667;42.872;74.622;2024-03-23T05:43:39;19.83;;;2.17;;
52798;SDS011;38667;42.872;74.622;2024-03-23T05:46:05;28.15;;;6.57;;
52798;SDS011;38667;42.872;74.622;2024-03-23T05:48:33;18.00;;;3.70;;
52798;SDS011;38667;42.872;74.622;2024-03-23T05:50:59;4.75;;;1.80;;
52798;SDS011;38667;42.872;74.622;2024-03-23T05:53:26;6.40;;;2.20;;
52798;SDS011;38667;42.872;74.622;2024-03-23T05:55:59;7.28;;;1.48;;
52798;SDS011;38667;42.872;74.622;2024-03-23T05:58:26;8.82;;;1.77;;
52798;SDS011;38667;42.872;74.622;2024-03-23T06:00:56;6.55;;;1.50;;
52798;SDS011;38667;42.872;74.622;2024-03-23T06:03:23;5.45;;;2.08;;
52798;SDS011;38667;42.872;74.622;2024-03-23T06:05:52;3.40;;;1.17;;
52798;SDS011;38667;42.872;74.622;2024-03-23T06:08:18;14.02;;;2.55;;
52798;SDS011;38667;42.872;74.622;2024-03-23T06:10:45;7.95;;;1.60;;
52798;SDS011;38667;42.872;74.622;2024-03-23T06:13:11;1.33;;;0.85;;
52798;SDS011;38667;42.872;74.622;2024-03-23T06:15:38;3.13;;;0.98;;
52798;SDS011;38667;42.872;74.622;2024-03-23T06:18:04;6.28;;;0.90;;
52798;SDS011;38667;42.872;74.622;2024-03-23T06:20:30;6.63;;;2.22;;
52798;SDS011;38667;42.872;74.622;2024-03-23T06:22:58;3.45;;;1.80;;
52798;SDS011;38667;42.872;74.622;2024-03-23T06:25:25;4.55;;;1.92;;
52798;SDS011;38667;42.872;74.622;2024-03-23T06:27:51;6.03;;;1.60;;
52798;SDS011;38667;42.872;74.622;2024-03-23T06:30:17;5.78;;;1.40;;
52798;SDS011;38667;42.872;74.622;2024-03-23T06:32:44;8.63;;;1.70;;
52798;SDS011;38667;42.872;74.622;2024-03-23T06:35:10;8.73;;;2.10;;
52798;SDS011;38667;42.872;74.622;2024-03-23T06:37:36;4.07;;;1.60;;
52798;SDS011;38667;42.872;74.622;2024-03-23T06:40:05;12.23;;;1.95;;
52798;SDS011;38667;42.872;74.622;2024-03-23T06:42:32;12.20;;;2.35;;
52798;SDS011;38667;42.872;74.622;2024-03-23T06:44:59;12.63;;;2.67;;
52798;SDS011;38667;42.872;74.622;2024-03-23T06:47:25;19.05;;;2.80;;
52798;SDS011;38667;42.872;74.622;2024-03-23T06:49:51;11.30;;;2.30;;
52798;SDS011;38667;42.872;74.622;2024-03-23T06:52:18;16.63;;;3.13;;
52798;SDS011;38667;42.872;74.622;2024-03-23T06:54:44;20.52;;;3.20;;
52798;SDS011;38667;42.872;74.622;2024-03-23T06:57:12;10.68;;;3.00;;
52798;SDS011;38667;42.872;74.622;2024-03-23T06:59:38;19.85;;;2.20;;
52798;SDS011;38667;42.872;74.622;2024-03-23T07:02:05;21.65;;;4.18;;
52798;SDS011;38667;42.872;74.622;2024-03-23T07:04:31;25.95;;;3.15;;
52798;SDS011;38667;42.872;74.622;2024-03-23T07:06:58;22.65;;;3.08;;
52798;SDS011;38667;42.872;74.622;2024-03-23T07:09:24;16.98;;;3.33;;
52798;SDS011;38667;42.872;74.622;2024-03-23T07:11:50;29.23;;;3.03;;
52798;SDS011;38667;42.872;74.622;2024-03-23T07:14:20;21.77;;;2.92;;
52798;SDS011;38667;42.872;74.622;2024-03-23T07:16:46;27.45;;;4.15;;
52798;SDS011;38667;42.872;74.622;2024-03-23T07:19:13;11.88;;;2.42;;
52798;SDS011;38667;42.872;74.622;2024-03-23T07:21:39;8.10;;;2.00;;
52798;SDS011;38667;42.872;74.622;2024-03-23T07:24:06;14.95;;;3.45;;
52798;SDS011;38667;42.872;74.622;2024-03-23T07:26:32;11.88;;;2.42;;
52798;SDS011;38667;42.872;74.622;2024-03-23T07:28:58;19.55;;;3.03;;
52798;SDS011;38667;42.872;74.622;2024-03-23T07:31:26;6.93;;;2.00;;
52798;SDS011;38667;42.872;74.622;2024-03-23T07:33:53;7.65;;;2.42;;
52798;SDS011;38667;42.872;74.622;2024-03-23T07:36:19;11.35;;;2.30;;
52798;SDS011;38667;42.872;74.622;2024-03-23T07:38:45;15.23;;;3.30;;
52798;SDS011;38667;42.872;74.622;2024-03-23T07:41:13;12.80;;;2.97;;
52798;SDS011;38667;42.872;74.622;2024-03-23T07:43:41;32.75;;;3.75;;
52798;SDS011;38667;42.872;74.622;2024-03-23T07:46:08;11.32;;;2.85;;
52798;SDS011;38667;42.872;74.622;2024-03-23T07:48:36;16.77;;;3.03;;
52798;SDS011;38667;42.872;74.622;2024-03-23T07:51:03;6.50;;;2.08;;
52798;SDS011;38667;42.872;74.622;2024-03-23T07:53:30;9.63;;;1.95;;
52798;SDS011;38667;42.872;74.622;2024-03-23T07:55:57;12.75;;;2.63;;
52798;SDS011;38667;42.872;74.622;2024-03-23T07:58:24;5.43;;;2.00;;
52798;SDS011;38667;42.872;74.622;2024-03-23T08:00:51;4.15;;;2.30;;
52798;SDS011;38667;42.872;74.622;2024-03-23T08:03:18;4.85;;;1.70;;
52798;SDS011;38667;42.872;74.622;2024-03-23T08:05:46;7.53;;;1.50;;
52798;SDS011;38667;42.872;74.622;2024-03-23T08:08:12;6.40;;;1.30;;
52798;SDS011;38667;42.872;74.622;2024-03-23T08:10:46;4.70;;;1.10;;
52798;SDS011;38667;42.872;74.622;2024-03-23T08:13:14;4.18;;;1.27;;
52798;SDS011;38667;42.872;74.622;2024-03-23T08:15:40;3.63;;;1.38;;
52798;SDS011;38667;42.872;74.622;2024-03-23T08:18:06;12.10;;;2.15;;
52798;SDS011;38667;42.872;74.622;2024-03-23T08:20:33;9.20;;;1.58;;
52798;SDS011;38667;42.872;74.622;2024-03-23T08:23:01;5.15;;;1.40;;
52798;SDS011;38667;42.872;74.622;2024-03-23T08:25:27;9.13;;;2.50;;
52798;SDS011;38667;42.872;74.622;2024-03-23T08:27:56;2.75;;;0.98;;
52798;SDS011;38667;42.872;74.622;2024-03-23T08:30:23;3.67;;;1.20;;
52798;SDS011;38667;42.872;74.622;2024-03-23T08:32:49;11.65;;;2.20;;
52798;SDS011;38667;42.872;74.622;2024-03-23T08:35:15;8.50;;;1.02;;
52798;SDS011;38667;42.872;74.622;2024-03-23T08:37:42;5.15;;;1.85;;
52798;SDS011;38667;42.872;74.622;2024-03-23T08:40:10;8.60;;;1.80;;
52798;SDS011;38667;42.872;74.622;2024-03-23T08:42:37;4.70;;;1.27;;
52798;SDS011;38667;42.872;74.622;2024-03-23T08:45:04;6.93;;;1.35;;
52798;SDS011;38667;42.872;74.622;2024-03-23T08:47:32;11.20;;;1.08;;
52798;SDS011;38667;42.872;74.622;2024-03-23T08:50:00;4.38;;;1.02;;
52798;SDS011;38667;42.872;74.622;2024-03-23T08:52:26;1.17;;;0.60;;
52798;SDS011;38667;42.872;74.622;2024-03-23T08:54:53;3.70;;;0.77;;
52798;SDS011;38667;42.872;74.622;2024-03-23T08:57:20;6.15;;;1.02;;
52798;SDS011;38667;42.872;74.622;2024-03-23T08:59:47;1.30;;;0.50;;
52798;SDS011;38667;42.872;74.622;2024-03-23T09:02:13;5.18;;;0.90;;
52798;SDS011;38667;42.872;74.622;2024-03-23T09:04:39;1.83;;;0.70;;
52798;SDS011;38667;42.872;74.622;2024-03-23T09:07:06;6.90;;;2.10;;
52798;SDS011;38667;42.872;74.622;2024-03-23T09:09:32;7.28;;;1.40;;
52798;SDS011;38667;42.872;74.622;2024-03-23T09:11:58;10.90;;;1.08;;
52798;SDS011;38667;42.872;74.622;2024-03-23T09:14:26;2.05;;;0.50;;
52798;SDS011;38667;42.872;74.622;2024-03-23T09:16:53;33.15;;;2.55;;
52798;SDS011;38667;42.872;74.622;2024-03-23T09:19:19;8.15;;;1.25;;
52798;SDS011;38667;42.872;74.622;2024-03-23T09:21:45;8.38;;;1.48;;
52798;SDS011;38667;42.872;74.622;2024-03-23T09:24:12;5.43;;;1.13;;
52798;SDS011;38667;42.872;74.622;2024-03-23T09:26:38;14.65;;;1.48;;
52798;SDS011;38667;42.872;74.622;2024-03-23T09:29:04;4.15;;;0.98;;
52798;SDS011;38667;42.872;74.622;2024-03-23T09:31:32;4.47;;;0.70;;
52798;SDS011;38667;42.872;74.622;2024-03-23T09:33:59;5.85;;;1.30;;
52798;SDS011;38667;42.872;74.622;2024-03-23T09:36:25;6.63;;;1.02;;
52798;SDS011;38667;42.872;74.622;2024-03-23T09:38:51;5.18;;;1.10;;
52798;SDS011;38667;42.872;74.622;2024-03-23T09:41:18;9.57;;;1.63;;
52798;SDS011;38667;42.872;74.622;2024-03-23T09:43:44;8.75;;;1.63;;
52798;SDS011;38667;42.872;74.622;2024-03-23T09:46:10;5.80;;;1.38;;
52798;SDS011;38667;42.872;74.622;2024-03-23T09:48:38;16.20;;;1.42;;
52798;SDS011;38667;42.872;74.622;2024-03-23T09:51:05;8.82;;;0.90;;
52798;SDS011;38667;42.872;74.622;2024-03-23T09:53:31;6.00;;;1.35;;
52798;SDS011;38667;42.872;74.622;2024-03-23T09:55:58;9.15;;;1.58;;
52798;SDS011;38667;42.872;74.622;2024-03-23T09:58:24;5.95;;;1.17;;
52798;SDS011;38667;42.872;74.622;2024-03-23T10:00:50;14.88;;;1.67;;
52798;SDS011;38667;42.872;74.622;2024-03-23T10:03:17;8.38;;;1.30;;
52798;SDS011;38667;42.872;74.622;2024-03-23T10:05:44;2.30;;;1.00;;
52798;SDS011;38667;42.872;74.622;2024-03-23T10:08:17;1.85;;;0.57;;
52798;SDS011;38667;42.872;74.622;2024-03-23T10:10:44;10.75;;;2.17;;
52798;SDS011;38667;42.872;74.622;2024-03-23T10:13:11;4.07;;;1.40;;
52798;SDS011;38667;42.872;74.622;2024-03-23T10:15:50;6.95;;;1.40;;
52798;SDS011;38667;42.872;74.622;2024-03-23T10:18:21;6.18;;;1.05;;
52798;SDS011;38667;42.872;74.622;2024-03-23T10:20:50;4.28;;;1.23;;
52798;SDS011;38667;42.872;74.622;2024-03-23T10:23:17;8.48;;;1.17;;
52798;SDS011;38667;42.872;74.622;2024-03-23T10:25:44;3.72;;;1.08;;
52798;SDS011;38667;42.872;74.622;2024-03-23T10:28:10;5.70;;;1.58;;
52798;SDS011;38667;42.872;74.622;2024-03-23T10:30:37;8.23;;;1.67;;
52798;SDS011;38667;42.872;74.622;2024-03-23T10:33:07;5.65;;;1.60;;
52798;SDS011;38667;42.872;74.622;2024-03-23T10:35:33;9.85;;;1.70;;
52798;SDS011;38667;42.872;74.622;2024-03-23T10:38:01;9.40;;;1.75;;
52798;SDS011;38667;42.872;74.622;2024-03-23T10:40:29;14.65;;;3.70;;
52798;SDS011;38667;42.872;74.622;2024-03-23T10:42:57;18.50;;;4.35;;
52798;SDS011;38667;42.872;74.622;2024-03-23T10:45:23;18.23;;;3.80;;
52798;SDS011;38667;42.872;74.622;2024-03-23T10:47:50;12.32;;;2.30;;
52798;SDS011;38667;42.872;74.622;2024-03-23T10:50:17;9.68;;;1.83;;
52798;SDS011;38667;42.872;74.622;2024-03-23T10:52:45;5.18;;;2.35;;
52798;SDS011;38667;42.872;74.622;2024-03-23T10:55:14;14.85;;;4.70;;
52798;SDS011;38667;42.872;74.622;2024-03-23T10:57:44;15.48;;;4.35;;
52798;SDS011;38667;42.872;74.622;2024-03-23T11:00:13;19.85;;;5.13;;
52798;SDS011;38667;42.872;74.622;2024-03-23T11:02:41;14.38;;;5.07;;
52798;SDS011;38667;42.872;74.622;2024-03-23T11:07:57;8.82;;;2.97;;
52798;SDS011;38667;42.872;74.622;2024-03-23T11:10:28;13.02;;;2.90;;
52798;SDS011;38667;42.872;74.622;2024-03-23T11:12:55;15.82;;;3.78;;
52798;SDS011;38667;42.872;74.622;2024-03-23T11:15:21;29.50;;;4.07;;
52798;SDS011;38667;42.872;74.622;2024-03-23T11:20:31;9.13;;;2.88;;
52798;SDS011;38667;42.872;74.622;2024-03-23T11:22:58;16.45;;;3.85;;
52798;SDS011;38667;42.872;74.622;2024-03-23T11:25:25;25.95;;;3.40;;
52798;SDS011;38667;42.872;74.622;2024-03-23T11:27:54;13.80;;;2.42;;
52798;SDS011;38667;42.872;74.622;2024-03-23T11:30:22;5.05;;;1.48;;
52798;SDS011;38667;42.872;74.622;2024-03-23T11:32:49;5.53;;;1.67;;
52798;SDS011;38667;42.872;74.622;2024-03-23T11:35:26;6.72;;;1.60;;
52798;SDS011;38667;42.872;74.622;2024-03-23T11:38:03;4.25;;;1.40;;
52798;SDS011;38667;42.872;74.622;2024-03-23T11:40:32;7.78;;;1.75;;
52798;SDS011;38667;42.872;74.622;2024-03-23T11:42:59;6.20;;;1.40;;
52798;SDS011;38667;42.872;74.622;2024-03-23T11:45:26;4.72;;;2.03;;
52798;SDS011;38667;42.872;74.622;2024-03-23T11:50:37;7.97;;;1.83;;
52798;SDS011;38667;42.872;74.622;2024-03-23T11:53:13;4.50;;;1.50;;
52798;SDS011;38667;42.872;74.622;2024-03-23T11:55:45;9.40;;;1.75;;
52798;SDS011;38667;42.872;74.622;2024-03-23T11:58:12;3.80;;;1.67;;
52798;SDS011;38667;42.872;74.622;2024-03-23T12:00:40;8.20;;;1.77;;
52798;SDS011;38667;42.872;74.622;2024-03-23T12:03:06;10.38;;;2.20;;
52798;SDS011;38667;42.872;74.622;2024-03-23T12:05:33;13.48;;;2.50;;
52798;SDS011;38667;42.872;74.622;2024-03-23T12:08:15;9.35;;;4.00;;
52798;SDS011;38667;42.872;74.622;2024-03-23T12:10:46;5.72;;;1.85;;
52798;SDS011;38667;42.872;74.622;2024-03-23T12:13:14;7.85;;;2.13;;
52798;SDS011;38667;42.872;74.622;2024-03-23T12:15:41;7.85;;;2.67;;
52798;SDS011;38667;42.872;74.622;2024-03-23T12:18:08;15.75;;;3.60;;
52798;SDS011;38667;42.872;74.622;2024-03-23T12:20:35;8.93;;;3.40;;
52798;SDS011;38667;42.872;74.622;2024-03-23T12:23:05;18.27;;;9.18;;
52798;SDS011;38667;42.872;74.622;2024-03-23T12:25:32;14.27;;;2.75;;
52798;SDS011;38667;42.872;74.622;2024-03-23T12:28:00;19.85;;;10.93;;
52798;SDS011;38667;42.872;74.622;2024-03-23T12:30:27;11.52;;;3.53;;
52798;SDS011;38667;42.872;74.622;2024-03-23T12:32:53;7.95;;;2.85;;
52798;SDS011;38667;42.872;74.622;2024-03-23T12:35:20;10.30;;;3.45;;
52798;SDS011;38667;42.872;74.622;2024-03-23T12:37:46;7.30;;;3.10;;
52798;SDS011;38667;42.872;74.622;2024-03-23T12:40:12;13.00;;;3.92;;
52798;SDS011;38667;42.872;74.622;2024-03-23T12:42:39;8.27;;;2.67;;
52798;SDS011;38667;42.872;74.622;2024-03-23T12:45:07;5.68;;;2.90;;
52798;SDS011;38667;42.872;74.622;2024-03-23T12:47:34;17.98;;;4.68;;
52798;SDS011;38667;42.872;74.622;2024-03-23T12:50:00;11.85;;;3.70;;
52798;SDS011;38667;42.872;74.622;2024-03-23T12:52:27;12.60;;;3.80;;
52798;SDS011;38667;42.872;74.622;2024-03-23T12:54:53;16.08;;;5.35;;
52798;SDS011;38667;42.872;74.622;2024-03-23T12:57:20;12.85;;;6.15;;
52798;SDS011;38667;42.872;74.622;2024-03-23T12:59:47;25.17;;;8.10;;
52798;SDS011;38667;42.872;74.622;2024-03-23T13:02:15;16.88;;;6.60;;
52798;SDS011;38667;42.872;74.622;2024-03-23T13:04:41;16.98;;;5.18;;
52798;SDS011;38667;42.872;74.622;2024-03-23T13:07:07;20.73;;;5.60;;
52798;SDS011;38667;42.872;74.622;2024-03-23T13:09:34;21.80;;;6.57;;
52798;SDS011;38667;42.872;74.622;2024-03-23T13:12:00;13.20;;;7.00;;
52798;SDS011;38667;42.872;74.622;2024-03-23T13:14:26;14.02;;;7.22;;
52798;SDS011;38667;42.872;74.622;2024-03-23T13:16:53;16.67;;;7.80;;
52798;SDS011;38667;42.872;74.622;2024-03-23T13:19:21;16.48;;;7.13;;
52798;SDS011;38667;42.872;74.622;2024-03-23T13:21:47;20.73;;;8.68;;
52798;SDS011;38667;42.872;74.622;2024-03-23T13:24:13;23.52;;;8.68;;
52798;SDS011;38667;42.872;74.622;2024-03-23T13:26:40;20.08;;;8.30;;
52798;SDS011;38667;42.872;74.622;2024-03-23T13:29:06;18.70;;;7.18;;
52798;SDS011;38667;42.872;74.622;2024-03-23T13:31:32;25.88;;;8.65;;
52798;SDS011;38667;42.872;74.622;2024-03-23T13:33:59;18.52;;;9.02;;
52798;SDS011;38667;42.872;74.622;2024-03-23T13:36:26;22.00;;;9.50;;
52798;SDS011;38667;42.872;74.622;2024-03-23T13:38:53;24.35;;;9.10;;
52798;SDS011;38667;42.872;74.622;2024-03-23T13:41:19;29.25;;;12.63;;
52798;SDS011;38667;42.872;74.622;2024-03-23T13:43:46;22.42;;;10.95;;
52798;SDS011;38667;42.872;74.622;2024-03-23T13:46:12;31.77;;;14.32;;
52798;SDS011;38667;42.872;74.622;2024-03-23T13:48:38;28.30;;;14.05;;
52798;SDS011;38667;42.872;74.622;2024-03-23T13:51:05;33.35;;;14.88;;
52798;SDS011;38667;42.872;74.622;2024-03-23T13:53:33;29.40;;;13.43;;
52798;SDS011;38667;42.872;74.622;2024-03-23T13:55:59;29.33;;;14.20;;
52798;SDS011;38667;42.872;74.622;2024-03-23T13:58:26;27.90;;;12.73;;
52798;SDS011;38667;42.872;74.622;2024-03-23T14:00:52;31.42;;;11.70;;
52798;SDS011;38667;42.872;74.622;2024-03-23T14:03:21;21.15;;;10.90;;
52798;SDS011;38667;42.872;74.622;2024-03-23T14:05:48;22.35;;;10.65;;
52798;SDS011;38667;42.872;74.622;2024-03-23T14:08:14;17.80;;;9.52;;
52798;SDS011;38667;42.872;74.622;2024-03-23T14:10:42;18.90;;;9.02;;
52798;SDS011;38667;42.872;74.622;2024-03-23T14:13:09;21.50;;;9.48;;
52798;SDS011;38667;42.872;74.622;2024-03-23T14:15:35;15.05;;;9.07;;
52798;SDS011;38667;42.872;74.622;2024-03-23T14:18:01;18.80;;;8.23;;
52798;SDS011;38667;42.872;74.622;2024-03-23T14:20:28;16.02;;;7.10;;
52798;SDS011;38667;42.872;74.622;2024-03-23T14:22:54;14.35;;;7.40;;
52798;SDS011;38667;42.872;74.622;2024-03-23T14:25:21;13.50;;;7.00;;
52798;SDS011;38667;42.872;74.622;2024-03-23T14:27:49;16.38;;;8.20;;
52798;SDS011;38667;42.872;74.622;2024-03-23T14:30:15;19.02;;;7.55;;
52798;SDS011;38667;42.872;74.622;2024-03-23T14:32:41;24.85;;;7.97;;
52798;SDS011;38667;42.872;74.622;2024-03-23T14:35:08;18.65;;;7.45;;
52798;SDS011;38667;42.872;74.622;2024-03-23T14:37:34;34.58;;;7.70;;
52798;SDS011;38667;42.872;74.622;2024-03-23T14:40:01;19.60;;;7.25;;
52798;SDS011;38667;42.872;74.622;2024-03-23T14:42:28;15.45;;;7.35;;
52798;SDS011;38667;42.872;74.622;2024-03-23T14:44:56;24.75;;;8.77;;
52798;SDS011;38667;42.872;74.622;2024-03-23T14:47:23;29.52;;;10.63;;
52798;SDS011;38667;42.872;74.622;2024-03-23T14:49:49;20.38;;;10.15;;
52798;SDS011;38667;42.872;74.622;2024-03-23T14:52:15;19.83;;;8.77;;
52798;SDS011;38667;42.872;74.622;2024-03-23T14:54:42;17.27;;;8.77;;
52798;SDS011;38667;42.872;74.622;2024-03-23T14:57:09;24.88;;;8.50;;
52798;SDS011;38667;42.872;74.622;2024-03-23T14:59:35;23.35;;;9.85;;
52798;SDS011;38667;42.872;74.622;2024-03-23T15:02:03;25.83;;;11.07;;
52798;SDS011;38667;42.872;74.622;2024-03-23T15:04:30;20.33;;;10.98;;
52798;SDS011;38667;42.872;74.622;2024-03-23T15:06:56;25.20;;;12.02;;
52798;SDS011;38667;42.872;74.622;2024-03-23T15:09:22;28.33;;;12.35;;
52798;SDS011;38667;42.872;74.622;2024-03-23T15:11:49;26.38;;;12.00;;
52798;SDS011;38667;42.872;74.622;2024-03-23T15:14:15;25.15;;;11.57;;
52798;SDS011;38667;42.872;74.622;2024-03-23T15:16:42;22.17;;;12.20;;
52798;SDS011;38667;42.872;74.622;2024-03-23T15:19:09;23.23;;;12.00;;
52798;SDS011;38667;42.872;74.622;2024-03-23T15:21:36;25.08;;;12.68;;
52798;SDS011;38667;42.872;74.622;2024-03-23T15:24:02;26.30;;;12.63;;